createdAt,value
2022-12-12T00:01:04.803Z,49.73
2022-12-12T00:03:33.033Z,50.13
2022-12-12T00:06:03.438Z,47.37
2022-12-12T00:08:31.624Z,49.70
2022-12-12T00:10:59.940Z,48.53
2022-12-12T00:13:27.945Z,52.93
2022-12-12T00:15:55.998Z,49.27
2022-12-12T00:18:25.396Z,52.37
2022-12-12T00:20:53.805Z,48.63
2022-12-12T00:23:21.841Z,45.97
2022-12-12T00:25:56.615Z,52.40
2022-12-12T00:28:24.815Z,50.90
2022-12-12T00:30:52.947Z,52.77
2022-12-12T00:33:21.389Z,47.03
2022-12-12T00:35:52.771Z,51.20
2022-12-12T00:38:22.546Z,49.80
2022-12-12T00:40:51.289Z,47.07
2022-12-12T00:43:19.320Z,50.63
2022-12-12T00:45:47.360Z,46.83
2022-12-12T00:48:15.403Z,42.20
2022-12-12T00:50:43.464Z,49.47
2022-12-12T00:53:13.799Z,48.30
2022-12-12T00:55:41.905Z,48.20
2022-12-12T00:58:09.985Z,49.93
2022-12-12T01:00:40.524Z,55.40
2022-12-12T01:03:08.765Z,48.70
2022-12-12T01:05:37.051Z,52.53
2022-12-12T01:08:05.264Z,48.13
2022-12-12T01:10:34.801Z,47.63
2022-12-12T01:13:02.896Z,51.73
2022-12-12T01:15:31.005Z,48.30
2022-12-12T01:17:59.109Z,48.40
2022-12-12T01:20:29.214Z,48.67
2022-12-12T01:22:57.516Z,48.33
2022-12-12T01:25:25.593Z,47.33
2022-12-12T01:27:55.159Z,45.93
2022-12-12T01:30:24.080Z,44.80
2022-12-12T01:32:52.429Z,49.17
2022-12-12T01:35:20.605Z,45.83
2022-12-12T01:37:49.266Z,45.60
2022-12-12T01:40:20.681Z,47.27
2022-12-12T01:42:49.552Z,50.10
2022-12-12T01:45:54.485Z,39.73
2022-12-12T01:48:25.264Z,47.20
2022-12-12T01:50:53.863Z,48.57
2022-12-12T01:53:23.093Z,46.27
2022-12-12T01:55:51.722Z,45.27
2022-12-12T01:58:19.766Z,46.47
2022-12-12T02:00:47.891Z,45.43
2022-12-12T02:03:15.939Z,44.73
2022-12-12T02:05:50.209Z,47.87
2022-12-12T02:08:20.780Z,48.57
2022-12-12T02:10:49.356Z,46.80
2022-12-12T02:13:21.542Z,49.37
2022-12-12T02:16:01.111Z,45.13
2022-12-12T02:18:36.587Z,47.13
2022-12-12T02:21:16.553Z,46.77
2022-12-12T02:24:25.972Z,47.73
2022-12-12T02:27:17.238Z,48.70
2022-12-12T02:30:09.058Z,48.47
2022-12-12T02:33:07.046Z,45.00
2022-12-12T02:35:44.737Z,46.13
2022-12-12T02:38:22.872Z,49.03
2022-12-12T02:41:01.649Z,49.27
2022-12-12T02:43:37.387Z,44.90
2022-12-12T02:46:09.720Z,40.93
2022-12-12T02:48:44.377Z,44.53
2022-12-12T02:51:15.209Z,45.70
2022-12-12T02:53:43.281Z,47.20
2022-12-12T02:56:41.063Z,47.70
2022-12-12T02:59:09.428Z,46.43
2022-12-12T03:01:50.421Z,48.77
2022-12-12T03:05:00.327Z,41.77
2022-12-12T03:07:50.864Z,44.67
2022-12-12T03:10:42.801Z,44.07
2022-12-12T03:13:15.194Z,43.60
2022-12-12T03:15:51.671Z,48.90
2022-12-12T03:18:26.657Z,54.20
2022-12-12T03:21:04.306Z,45.47
2022-12-12T03:23:39.042Z,43.10
2022-12-12T03:26:13.142Z,45.13
2022-12-12T03:28:48.941Z,50.30
2022-12-12T03:31:20.886Z,44.50
2022-12-12T03:33:54.365Z,46.90
2022-12-12T03:36:28.381Z,49.43
2022-12-12T03:39:00.773Z,41.57
2022-12-12T03:41:32.851Z,49.60
2022-12-12T03:44:05.767Z,48.37
2022-12-12T03:46:40.156Z,53.03
2022-12-12T03:49:14.627Z,52.90
2022-12-12T03:51:49.476Z,49.40
2022-12-12T03:54:23.033Z,49.03
2022-12-12T03:56:57.115Z,47.80
2022-12-12T03:59:30.378Z,47.93
2022-12-12T04:02:03.188Z,51.87
2022-12-12T04:04:40.015Z,51.57
2022-12-12T04:07:16.954Z,51.20
2022-12-12T04:10:02.501Z,44.73
2022-12-12T04:12:53.843Z,46.70
2022-12-12T04:15:36.290Z,54.97
2022-12-12T04:18:15.133Z,51.70
2022-12-12T04:21:08.633Z,54.50
2022-12-12T04:23:48.795Z,51.67
2022-12-12T04:26:40.317Z,54.67
2022-12-12T04:29:17.861Z,50.40
2022-12-12T04:31:53.028Z,51.60
2022-12-12T04:34:27.484Z,53.70
2022-12-12T04:36:55.899Z,57.57
2022-12-12T04:39:27.163Z,56.00
2022-12-12T04:41:56.254Z,55.80
2022-12-12T04:44:25.897Z,51.67
2022-12-12T04:46:57.716Z,57.57
2022-12-12T04:49:28.865Z,54.83
2022-12-12T04:52:00.386Z,53.80
2022-12-12T04:54:37.898Z,58.73
2022-12-12T04:57:09.353Z,57.07
2022-12-12T04:59:38.057Z,58.57
2022-12-12T05:02:15.606Z,54.90
2022-12-12T05:04:50.839Z,56.37
2022-12-12T05:07:25.704Z,58.73
2022-12-12T05:09:55.597Z,55.40
2022-12-12T05:12:23.906Z,55.70
2022-12-12T05:14:52.094Z,62.27
2022-12-12T05:17:28.398Z,61.07
2022-12-12T05:19:57.805Z,60.20
2022-12-12T05:22:25.825Z,59.53
2022-12-12T05:24:55.400Z,58.40
2022-12-12T05:27:23.474Z,58.67
2022-12-12T05:29:51.505Z,57.17
2022-12-12T05:32:19.572Z,55.90
2022-12-12T05:34:47.568Z,60.53
2022-12-12T05:37:15.659Z,59.00
2022-12-12T05:39:43.616Z,61.00
2022-12-12T05:42:13.025Z,61.47
2022-12-12T05:44:41.138Z,56.93
2022-12-12T05:47:09.298Z,67.77
2022-12-12T05:49:37.321Z,60.27
2022-12-12T05:52:05.615Z,60.00
2022-12-12T05:54:33.809Z,60.13
2022-12-12T05:57:01.848Z,60.63
2022-12-12T05:59:31.321Z,55.77
2022-12-12T06:01:59.418Z,60.50
2022-12-12T06:04:27.692Z,60.27
2022-12-12T06:06:55.806Z,58.07
2022-12-12T06:09:23.802Z,56.90
2022-12-12T06:11:51.853Z,60.70
2022-12-12T06:14:19.842Z,58.43
2022-12-12T06:16:49.331Z,60.33
2022-12-12T06:19:19.133Z,59.57
2022-12-12T06:21:47.251Z,62.97
2022-12-12T06:24:15.588Z,61.70
2022-12-12T06:26:43.605Z,63.53
2022-12-12T06:29:11.708Z,64.43
2022-12-12T06:31:39.802Z,56.13
2022-12-12T06:34:09.320Z,60.23
2022-12-12T06:36:38.049Z,54.17
2022-12-12T06:39:06.284Z,68.13
2022-12-12T06:41:34.889Z,53.70
2022-12-12T06:44:03.178Z,61.70
2022-12-12T06:46:31.798Z,63.30
2022-12-12T06:49:00.306Z,65.17
2022-12-12T06:51:33.385Z,64.10
2022-12-12T06:54:01.408Z,62.37
2022-12-12T06:56:30.864Z,59.03
2022-12-12T06:59:01.053Z,64.93
2022-12-12T07:01:29.230Z,58.33
2022-12-12T07:03:58.093Z,63.97
2022-12-12T07:06:26.413Z,63.10
2022-12-12T07:08:56.287Z,59.57
2022-12-12T07:11:26.955Z,62.20
2022-12-12T07:13:57.060Z,66.90
2022-12-12T07:16:25.278Z,57.17
2022-12-12T07:18:53.329Z,59.53
2022-12-12T07:21:22.156Z,69.10
2022-12-12T07:23:50.355Z,59.97
2022-12-12T07:26:21.776Z,59.67
2022-12-12T07:28:51.548Z,62.07
2022-12-12T07:31:22.579Z,63.33
2022-12-12T07:33:50.669Z,69.60
2022-12-12T07:36:19.052Z,57.33
2022-12-12T07:38:47.086Z,58.60
2022-12-12T07:41:17.086Z,60.90
2022-12-12T07:43:51.065Z,63.40
2022-12-12T07:46:21.192Z,57.13
2022-12-12T07:48:49.417Z,63.97
2022-12-12T07:51:17.986Z,64.87
2022-12-12T07:53:46.722Z,63.23
2022-12-12T07:56:16.677Z,65.47
2022-12-12T07:58:45.194Z,66.10
2022-12-12T08:01:17.377Z,64.17
2022-12-12T08:03:46.313Z,66.20
2022-12-12T08:06:16.270Z,68.57
2022-12-12T08:08:44.645Z,64.30
2022-12-12T08:11:15.917Z,64.23
2022-12-12T08:13:44.172Z,69.47
2022-12-12T08:16:17.096Z,62.50
2022-12-12T08:18:45.785Z,67.43
2022-12-12T08:21:18.797Z,62.80
2022-12-12T08:23:53.080Z,67.17
2022-12-12T08:26:21.169Z,71.03
2022-12-12T08:28:50.024Z,69.77
2022-12-12T08:31:21.501Z,69.37
2022-12-12T08:33:51.307Z,68.63
2022-12-12T08:36:22.029Z,68.47
2022-12-12T08:38:50.841Z,65.13
2022-12-12T08:41:19.924Z,62.87
2022-12-12T08:43:48.057Z,69.17
2022-12-12T08:46:18.583Z,64.40
2022-12-12T08:48:49.215Z,66.53
2022-12-12T08:51:18.398Z,64.47
2022-12-12T08:53:46.850Z,68.10
2022-12-12T08:56:15.198Z,71.13
2022-12-12T08:58:43.351Z,64.67
2022-12-12T09:01:12.609Z,67.90
2022-12-12T09:03:40.908Z,66.33
2022-12-12T09:06:11.512Z,66.33
2022-12-12T09:08:40.101Z,68.50
2022-12-12T09:11:08.576Z,65.70
2022-12-12T09:13:36.960Z,62.47
2022-12-12T09:16:05.549Z,65.10
2022-12-12T09:18:33.835Z,65.17
2022-12-12T09:21:02.029Z,67.13
2022-12-12T09:23:31.568Z,59.40
2022-12-12T09:26:00.148Z,68.13
2022-12-12T09:28:28.344Z,69.50
2022-12-12T09:30:56.395Z,65.27
2022-12-12T09:33:24.414Z,72.27
2022-12-12T09:35:59.673Z,63.40
2022-12-12T09:38:28.825Z,61.67
2022-12-12T09:41:02.599Z,61.27
2022-12-12T09:43:34.822Z,67.93
2022-12-12T09:46:04.614Z,71.83
2022-12-12T09:48:42.055Z,65.80
2022-12-12T09:51:11.380Z,71.97
2022-12-12T09:53:40.710Z,66.77
2022-12-12T09:56:14.599Z,65.23
2022-12-12T09:58:53.946Z,63.60
2022-12-12T10:01:29.905Z,64.40
2022-12-12T10:04:06.696Z,64.80
2022-12-12T10:06:41.429Z,58.33
2022-12-12T10:09:33.527Z,64.60
2022-12-12T10:12:08.397Z,61.30
2022-12-12T10:14:40.000Z,65.20
2022-12-12T10:17:15.069Z,67.60
2022-12-12T10:19:49.513Z,57.97
2022-12-12T10:22:37.010Z,58.00
2022-12-12T10:25:17.959Z,57.80
2022-12-12T10:27:47.844Z,61.13
2022-12-12T10:30:18.981Z,66.53
2022-12-12T10:33:05.714Z,63.07
2022-12-12T10:35:42.990Z,59.50
2022-12-12T10:38:25.621Z,57.93
2022-12-12T10:40:59.989Z,57.47
2022-12-12T10:43:35.722Z,53.93
2022-12-12T10:46:23.913Z,59.43
2022-12-12T10:48:53.149Z,61.33
2022-12-12T10:51:24.052Z,55.57
2022-12-12T10:53:52.240Z,66.93
2022-12-12T10:56:27.710Z,60.93
2022-12-12T10:59:02.904Z,58.27
2022-12-12T11:04:35.553Z,65.40
2022-12-12T11:07:17.854Z,58.07
2022-12-12T11:09:50.430Z,59.03
2022-12-12T11:12:34.271Z,52.07
2022-12-12T11:15:16.979Z,53.93
2022-12-12T11:17:47.153Z,54.17
2022-12-12T11:20:19.478Z,55.20
2022-12-12T11:22:53.080Z,54.43
2022-12-12T11:25:29.347Z,55.50
2022-12-12T11:28:06.423Z,54.70
2022-12-12T11:30:45.545Z,52.03
2022-12-12T11:33:25.818Z,58.63
2022-12-12T11:35:58.430Z,50.67
2022-12-12T11:38:34.762Z,53.07
2022-12-12T11:41:10.206Z,55.23
2022-12-12T11:43:54.228Z,52.70
2022-12-12T11:46:33.480Z,49.90
2022-12-12T11:49:07.631Z,48.30
2022-12-12T11:51:43.660Z,49.90
2022-12-12T11:54:27.571Z,52.70
2022-12-12T11:57:07.213Z,51.13
2022-12-12T11:59:57.605Z,52.40
2022-12-12T12:02:58.198Z,51.60
2022-12-12T12:05:37.316Z,47.30
2022-12-12T12:08:15.143Z,52.70
2022-12-12T12:10:56.977Z,51.43
2022-12-12T12:13:42.570Z,54.77
2022-12-12T12:16:20.885Z,49.87
2022-12-12T12:19:02.360Z,47.67
2022-12-12T12:21:43.017Z,48.10
2022-12-12T12:24:41.772Z,48.37
2022-12-12T12:27:18.246Z,43.17
2022-12-12T12:30:16.715Z,45.93
2022-12-12T12:33:11.891Z,43.83
2022-12-12T12:35:51.869Z,47.70
2022-12-12T12:38:27.991Z,49.07
2022-12-12T12:41:15.973Z,48.70
2022-12-12T12:44:01.372Z,49.83
2022-12-12T12:46:39.786Z,44.67
2022-12-12T12:49:13.848Z,44.47
2022-12-12T12:51:50.421Z,43.23
2022-12-12T12:54:25.085Z,45.03
2022-12-12T12:57:00.000Z,45.80
2022-12-12T12:59:34.244Z,46.33
2022-12-12T13:02:06.852Z,42.70
2022-12-12T13:04:42.317Z,41.70
2022-12-12T13:07:17.440Z,43.37
2022-12-12T13:09:55.386Z,38.10
2022-12-12T13:12:30.649Z,38.00
2022-12-12T13:15:03.151Z,39.97
2022-12-12T13:17:43.290Z,38.90
2022-12-12T13:20:16.855Z,38.37
2022-12-12T13:22:55.079Z,37.30
2022-12-12T13:25:34.515Z,40.87
2022-12-12T13:28:08.085Z,39.20
2022-12-12T13:30:48.828Z,42.73
2022-12-12T13:33:36.008Z,40.03
2022-12-12T13:36:11.240Z,37.77
2022-12-12T13:38:40.189Z,41.80
2022-12-12T13:41:11.396Z,40.63
2022-12-12T13:43:48.295Z,38.83
2022-12-12T13:46:35.057Z,40.13
2022-12-12T13:49:27.021Z,38.07
2022-12-12T13:52:24.191Z,38.60
2022-12-12T13:54:55.641Z,38.73
2022-12-12T13:57:27.270Z,38.90
2022-12-12T14:00:15.797Z,43.63
2022-12-12T14:02:47.040Z,42.73
2022-12-12T14:05:22.552Z,44.00
2022-12-12T14:07:54.233Z,44.83
2022-12-12T14:10:27.965Z,43.13
2022-12-12T14:12:57.326Z,40.93
2022-12-12T14:15:31.353Z,41.53
2022-12-12T14:18:02.790Z,41.70
2022-12-12T14:20:33.630Z,41.50
2022-12-12T14:23:23.788Z,42.73
2022-12-12T14:25:52.261Z,40.47
2022-12-12T14:28:22.610Z,42.83
2022-12-12T14:30:57.362Z,42.03
2022-12-12T14:34:02.788Z,44.40
2022-12-12T14:37:28.015Z,44.33
2022-12-12T14:40:05.341Z,47.27
2022-12-12T14:43:18.965Z,44.00
2022-12-12T14:45:54.127Z,46.73
2022-12-12T14:48:24.712Z,43.53
2022-12-12T14:50:57.434Z,40.37
2022-12-12T14:53:28.615Z,43.40
2022-12-12T14:56:01.353Z,42.90
2022-12-12T14:58:32.202Z,47.60
2022-12-12T15:01:02.868Z,43.17
2022-12-12T15:03:35.708Z,51.23
2022-12-12T15:06:36.428Z,57.60
2022-12-12T15:09:20.088Z,43.00
2022-12-12T15:11:50.215Z,42.87
2022-12-12T15:14:25.614Z,45.43
2022-12-12T15:16:59.692Z,46.77
2022-12-12T15:19:31.105Z,46.57
2022-12-12T15:21:59.877Z,46.40
2022-12-12T15:24:30.525Z,47.10
2022-12-12T15:27:00.838Z,55.37
2022-12-12T15:29:31.273Z,65.07
2022-12-12T15:32:02.950Z,52.90
2022-12-12T15:34:37.249Z,57.53
2022-12-12T15:37:28.271Z,50.73
2022-12-12T15:40:22.665Z,55.53
2022-12-12T15:42:56.469Z,55.57
2022-12-12T15:45:30.353Z,61.60
2022-12-12T15:47:59.296Z,60.47
2022-12-12T15:50:31.216Z,55.77
2022-12-12T15:53:19.506Z,53.67
2022-12-12T15:55:59.521Z,58.80
2022-12-12T15:58:33.365Z,54.87
2022-12-12T16:01:08.358Z,56.83
2022-12-12T16:03:56.966Z,59.77
2022-12-12T16:06:26.660Z,61.83
2022-12-12T16:09:01.640Z,64.90
2022-12-12T16:11:40.758Z,58.87
2022-12-12T16:14:26.445Z,56.10
2022-12-12T16:16:58.737Z,59.30
2022-12-12T16:19:34.792Z,60.50
2022-12-12T16:22:06.015Z,60.60
2022-12-12T16:24:34.241Z,63.47
2022-12-12T16:27:02.895Z,59.17
2022-12-12T16:29:32.466Z,55.50
2022-12-12T16:32:00.550Z,55.70
2022-12-12T16:34:28.586Z,62.03
2022-12-12T16:36:56.713Z,62.03
2022-12-12T16:39:24.770Z,59.77
2022-12-12T16:41:52.909Z,53.40
2022-12-12T16:44:23.759Z,61.37
2022-12-12T16:46:53.327Z,63.63
2022-12-12T16:49:21.933Z,58.00
2022-12-12T16:51:50.057Z,55.90
2022-12-12T16:54:18.872Z,60.87
2022-12-12T16:56:52.438Z,57.97
2022-12-12T16:59:20.487Z,58.57
2022-12-12T17:01:48.611Z,52.63
2022-12-12T17:04:22.390Z,56.80
2022-12-12T17:06:50.902Z,57.90
2022-12-12T17:09:21.408Z,61.23
2022-12-12T17:11:49.732Z,56.97
2022-12-12T17:14:21.593Z,55.83
2022-12-12T17:16:49.941Z,65.57
2022-12-12T17:19:19.436Z,58.53
2022-12-12T17:21:47.783Z,65.83
2022-12-12T17:24:16.594Z,65.40
2022-12-12T17:26:44.963Z,67.97
2022-12-12T17:29:13.002Z,67.80
2022-12-12T17:31:41.366Z,68.80
2022-12-12T17:34:09.610Z,69.53
2022-12-12T17:36:39.255Z,68.57
2022-12-12T17:39:07.465Z,71.40
2022-12-12T17:41:35.573Z,70.63
2022-12-12T17:44:03.720Z,73.10
2022-12-12T17:46:32.486Z,77.93
2022-12-12T17:49:01.978Z,81.47
2022-12-12T17:51:30.235Z,78.63
2022-12-12T17:54:00.529Z,79.30
2022-12-12T17:56:29.065Z,80.43
2022-12-12T17:58:58.045Z,77.63
2022-12-12T18:01:28.125Z,81.03
2022-12-12T18:03:57.704Z,81.70
2022-12-12T18:06:28.189Z,82.83
2022-12-12T18:08:56.851Z,94.73
2022-12-12T18:11:28.039Z,88.77
2022-12-12T18:13:57.920Z,85.10
2022-12-12T18:16:28.111Z,93.10
2022-12-12T18:18:57.597Z,91.90
2022-12-12T18:24:16.044Z,99.43
2022-12-12T18:26:47.657Z,101.70
2022-12-12T18:29:15.783Z,97.13
2022-12-12T18:31:43.992Z,103.20
2022-12-12T18:34:12.108Z,108.20
2022-12-12T18:36:40.610Z,107.67
2022-12-12T18:39:09.072Z,124.33
2022-12-12T18:41:37.788Z,115.20
2022-12-12T18:44:09.080Z,119.40
2022-12-12T18:46:42.648Z,114.87
2022-12-12T18:49:13.830Z,126.17
2022-12-12T18:51:42.542Z,107.43
2022-12-12T18:54:15.456Z,117.30
2022-12-12T18:56:45.307Z,114.97
2022-12-12T18:59:15.628Z,106.27
2022-12-12T19:01:44.023Z,105.20
2022-12-12T19:04:17.529Z,100.60
2022-12-12T19:06:49.269Z,103.40
2022-12-12T19:09:19.994Z,99.17
2022-12-12T19:11:48.425Z,100.53
2022-12-12T19:14:18.267Z,92.13
2022-12-12T19:16:46.909Z,99.13
2022-12-12T19:19:15.626Z,103.33
2022-12-12T19:21:44.305Z,103.67
2022-12-12T19:24:13.767Z,94.87
2022-12-12T19:26:43.828Z,94.97
2022-12-12T19:29:13.895Z,92.87
2022-12-12T19:31:43.380Z,92.23
2022-12-12T19:34:13.491Z,87.60
2022-12-12T19:36:41.896Z,89.40
2022-12-12T19:39:10.294Z,90.20
2022-12-12T19:41:38.563Z,89.60
2022-12-12T19:44:08.944Z,95.70
2022-12-12T19:46:37.170Z,100.40
2022-12-12T19:49:08.618Z,90.17
2022-12-12T19:51:39.352Z,95.00
2022-12-12T19:54:08.989Z,88.83
2022-12-12T19:56:40.633Z,92.13
2022-12-12T19:59:09.817Z,106.27
2022-12-12T20:01:38.941Z,111.60
2022-12-12T20:04:09.985Z,104.17
2022-12-12T20:06:45.262Z,109.90
2022-12-12T20:09:16.092Z,126.57
2022-12-12T20:11:45.370Z,121.10
2022-12-12T20:14:15.401Z,115.00
2022-12-12T20:16:43.864Z,125.10
2022-12-12T20:19:14.820Z,102.83
2022-12-12T20:22:02.218Z,115.23
2022-12-12T20:24:31.157Z,105.63
2022-12-12T20:27:00.219Z,115.27
2022-12-12T20:29:28.801Z,105.87
2022-12-12T20:31:57.042Z,111.53
2022-12-12T20:34:26.482Z,120.27
2022-12-12T20:36:55.760Z,115.53
2022-12-12T20:39:25.841Z,111.67
2022-12-12T20:41:54.768Z,114.57
2022-12-12T20:44:24.264Z,103.77
2022-12-12T20:46:53.209Z,102.43
2022-12-12T20:49:24.076Z,101.57
2022-12-12T20:51:55.912Z,111.30
2022-12-12T20:54:25.178Z,113.33
2022-12-12T20:56:53.715Z,110.90
2022-12-12T20:59:21.719Z,89.73
2022-12-12T21:01:49.856Z,119.27
2022-12-12T21:04:18.126Z,97.73
2022-12-12T21:06:49.763Z,90.30
2022-12-12T21:09:25.041Z,90.40
2022-12-12T21:11:55.148Z,94.87
2022-12-12T21:14:23.786Z,142.30
2022-12-12T21:16:52.677Z,106.00
2022-12-12T21:19:22.050Z,115.27
2022-12-12T21:21:50.493Z,92.23
2022-12-12T21:24:20.781Z,89.13
2022-12-12T21:26:49.640Z,95.73
2022-12-12T21:29:17.738Z,84.90
2022-12-12T21:31:50.900Z,81.80
2022-12-12T21:34:22.093Z,78.20
2022-12-12T21:36:52.735Z,85.07
2022-12-12T21:39:23.281Z,80.53
2022-12-12T21:41:51.743Z,80.93
2022-12-12T21:44:20.209Z,78.43
2022-12-12T21:46:48.814Z,89.27
2022-12-12T21:49:30.814Z,78.17
2022-12-12T21:52:03.018Z,76.97
2022-12-12T21:54:33.844Z,75.10
2022-12-12T21:57:02.734Z,69.43
2022-12-12T21:59:31.482Z,67.80
2022-12-12T22:02:01.493Z,69.17
2022-12-12T22:04:29.919Z,77.90
2022-12-12T22:06:58.455Z,75.97
2022-12-12T22:09:27.281Z,71.77
2022-12-12T22:12:03.470Z,74.20
2022-12-12T22:14:33.804Z,70.93
2022-12-12T22:17:01.948Z,76.43
2022-12-12T22:19:30.197Z,70.80
2022-12-12T22:21:58.329Z,77.43
2022-12-12T22:24:26.451Z,77.40
2022-12-12T22:26:55.951Z,82.60
2022-12-12T22:29:23.985Z,76.63
2022-12-12T22:31:52.398Z,76.87
2022-12-12T22:34:23.403Z,87.93
2022-12-12T22:36:52.149Z,82.17
2022-12-12T22:39:21.975Z,85.43
2022-12-12T22:41:50.621Z,83.63
2022-12-12T22:44:22.233Z,87.23
2022-12-12T22:46:51.923Z,82.33
2022-12-12T22:49:22.458Z,84.33
2022-12-12T22:51:51.374Z,81.67
2022-12-12T22:54:19.937Z,86.83
2022-12-12T22:56:47.976Z,95.53
2022-12-12T22:59:16.083Z,90.43
2022-12-12T23:01:45.590Z,97.53
2022-12-12T23:04:14.470Z,94.00
2022-12-12T23:06:43.532Z,95.27
2022-12-12T23:09:15.336Z,102.03
2022-12-12T23:11:44.100Z,82.17
2022-12-12T23:14:15.721Z,89.07
2022-12-12T23:16:45.583Z,90.10
2022-12-12T23:19:15.481Z,83.93
2022-12-12T23:21:43.621Z,93.07
2022-12-12T23:24:12.510Z,84.83
2022-12-12T23:26:40.774Z,95.40
2022-12-12T23:29:10.783Z,87.93
2022-12-12T23:31:39.659Z,97.13
2022-12-12T23:34:14.480Z,93.30
2022-12-12T23:36:44.814Z,90.53
2022-12-12T23:39:14.118Z,87.17
2022-12-12T23:41:42.720Z,92.77
2022-12-12T23:44:13.239Z,92.33
2022-12-12T23:46:41.793Z,93.13
2022-12-12T23:49:16.125Z,89.17
2022-12-12T23:51:45.807Z,79.97
2022-12-12T23:54:16.005Z,83.97
2022-12-12T23:56:44.716Z,79.97
2022-12-12T23:59:17.384Z,72.60
